createdAt,value
2018-11-03T00:00:29.362Z,27.10
2018-11-03T00:02:58.699Z,17.00
2018-11-03T00:05:27.913Z,16.10
2018-11-03T00:07:57.120Z,19.77
2018-11-03T00:10:26.456Z,29.10
2018-11-03T00:12:55.636Z,34.60
2018-11-03T00:15:24.875Z,30.60
2018-11-03T00:17:54.348Z,32.17
2018-11-03T00:20:23.547Z,31.13
2018-11-03T00:22:52.743Z,33.10
2018-11-03T00:25:21.960Z,29.90
2018-11-03T00:27:51.198Z,31.20
2018-11-03T00:30:20.417Z,29.87
2018-11-03T00:32:49.639Z,32.87
2018-11-03T00:35:18.902Z,31.33
2018-11-03T00:43:48.377Z,30.93
2018-11-03T00:46:17.550Z,15.77
2018-11-03T00:48:46.768Z,15.30
2018-11-03T00:51:15.950Z,16.60
2018-11-03T00:53:45.165Z,13.60
2018-11-03T00:56:14.373Z,15.00
2018-11-03T00:58:43.607Z,24.07
2018-11-03T01:01:12.765Z,16.37
2018-11-03T01:03:42.329Z,15.43
2018-11-03T01:06:11.489Z,18.23
2018-11-03T01:08:40.683Z,30.27
2018-11-03T01:11:09.853Z,35.47
2018-11-03T01:13:39.268Z,35.70
2018-11-03T01:16:08.551Z,22.77
2018-11-03T01:18:37.794Z,30.87
2018-11-03T01:21:07.042Z,35.60
2018-11-03T01:23:36.285Z,30.13
2018-11-03T01:26:05.471Z,40.20
2018-11-03T01:28:34.665Z,19.27
2018-11-03T01:31:03.842Z,32.60
2018-11-03T01:33:33.097Z,34.47
2018-11-03T01:36:23.068Z,38.87
2018-11-03T01:38:52.277Z,35.13
2018-11-03T01:41:21.485Z,38.43
2018-11-03T01:43:50.661Z,36.00
2018-11-03T01:46:19.861Z,34.77
2018-11-03T01:48:49.024Z,35.40
2018-11-03T01:51:18.194Z,33.60
2018-11-03T01:53:47.427Z,35.50
2018-11-03T01:56:16.653Z,27.87
2018-11-03T01:58:45.866Z,34.13
2018-11-03T02:01:15.032Z,30.50
2018-11-03T02:03:44.221Z,32.97
2018-11-03T02:06:13.400Z,28.97
2018-11-03T02:08:42.601Z,31.03
2018-11-03T02:11:12.581Z,33.40
2018-11-03T02:13:41.822Z,31.80
2018-11-03T02:16:11.071Z,30.83
2018-11-03T02:18:40.262Z,29.40
2018-11-03T02:21:09.489Z,30.63
2018-11-03T02:23:38.682Z,33.67
2018-11-03T02:26:07.897Z,33.67
2018-11-03T02:28:37.107Z,31.00
2018-11-03T02:31:06.781Z,30.67
2018-11-03T02:33:35.972Z,41.47
2018-11-03T02:36:05.206Z,31.63
2018-11-03T02:38:34.866Z,33.30
2018-11-03T02:41:04.086Z,29.37
2018-11-03T02:43:33.297Z,30.50
2018-11-03T02:46:23.634Z,30.60
2018-11-03T02:48:52.851Z,26.80
2018-11-03T02:51:22.060Z,26.90
2018-11-03T02:53:51.277Z,31.67
2018-11-03T02:56:20.511Z,31.37
2018-11-03T02:58:49.700Z,30.37
2018-11-03T03:01:18.915Z,30.67
2018-11-03T03:03:48.104Z,28.67
2018-11-03T03:06:17.300Z,24.73
2018-11-03T03:08:46.705Z,36.40
2018-11-03T03:11:16.077Z,34.30
2018-11-03T03:13:45.297Z,32.90
2018-11-03T03:16:14.527Z,34.87
2018-11-03T03:18:43.843Z,35.33
2018-11-03T03:21:13.098Z,38.30
2018-11-03T03:23:42.261Z,36.87
2018-11-03T03:26:11.461Z,71.27
2018-11-03T03:31:41.390Z,50.07
2018-11-03T03:34:10.611Z,67.60
2018-11-03T03:36:39.814Z,124.67
2018-11-03T03:39:10.767Z,81.13
2018-11-03T03:41:40.412Z,47.13
2018-11-03T03:44:09.604Z,43.03
2018-11-03T03:46:38.781Z,42.40
2018-11-03T03:49:08.021Z,40.10
2018-11-03T03:51:37.203Z,21.73
2018-11-03T03:54:06.494Z,30.67
2018-11-03T03:56:35.669Z,21.77
2018-11-03T03:59:04.874Z,17.50
2018-11-03T04:01:34.154Z,20.80
2018-11-03T04:04:03.418Z,32.77
2018-11-03T04:06:32.622Z,43.83
2018-11-03T04:09:01.848Z,37.30
2018-11-03T04:11:31.036Z,39.27
2018-11-03T04:14:00.252Z,40.03
2018-11-03T04:16:29.484Z,39.00
2018-11-03T04:18:58.682Z,40.37
2018-11-03T04:21:30.108Z,29.23
2018-11-03T04:23:59.742Z,17.77
2018-11-03T04:26:30.046Z,27.03
2018-11-03T04:28:59.726Z,36.37
2018-11-03T04:31:29.025Z,38.10
2018-11-03T04:33:58.388Z,39.43
2018-11-03T04:36:27.614Z,39.53
2018-11-03T04:38:56.814Z,36.20
2018-11-03T04:41:26.012Z,44.23
2018-11-03T04:43:55.255Z,45.73
2018-11-03T04:46:24.510Z,44.83
2018-11-03T04:48:57.833Z,45.10
2018-11-03T04:51:27.023Z,39.97
2018-11-03T04:53:56.227Z,47.37
2018-11-03T04:56:25.473Z,45.73
2018-11-03T04:58:54.682Z,34.17
2018-11-03T05:01:23.880Z,28.07
2018-11-03T05:03:53.101Z,43.93
2018-11-03T05:06:22.310Z,47.07
2018-11-03T05:08:51.480Z,46.07
2018-11-03T05:11:20.765Z,46.23
2018-11-03T05:13:49.943Z,49.00
2018-11-03T05:16:19.198Z,54.47
2018-11-03T05:18:48.427Z,53.90
2018-11-03T05:21:17.666Z,55.47
2018-11-03T05:23:46.879Z,44.43
2018-11-03T05:26:16.106Z,49.43
2018-11-03T05:28:45.350Z,51.27
2018-11-03T05:31:14.649Z,48.97
2018-11-03T05:33:43.941Z,52.23
2018-11-03T05:36:13.147Z,51.70
2018-11-03T05:38:42.354Z,47.83
2018-11-03T05:41:11.541Z,51.00
2018-11-03T05:43:40.782Z,45.47
2018-11-03T05:46:09.977Z,51.20
2018-11-03T05:48:39.242Z,49.33
2018-11-03T05:51:08.425Z,54.67
2018-11-03T05:53:37.641Z,46.47
2018-11-03T05:56:06.865Z,47.73
2018-11-03T05:58:36.150Z,49.97
2018-11-03T06:01:05.484Z,46.93
2018-11-03T06:03:34.706Z,45.13
2018-11-03T06:06:03.963Z,46.70
2018-11-03T06:08:33.186Z,48.40
2018-11-03T06:11:02.430Z,47.80
2018-11-03T06:13:31.589Z,46.70
2018-11-03T06:16:00.768Z,43.63
2018-11-03T06:18:29.985Z,37.27
2018-11-03T06:20:59.223Z,41.93
2018-11-03T06:23:28.411Z,39.77
2018-11-03T06:25:57.646Z,49.77
2018-11-03T06:28:26.945Z,50.77
2018-11-03T06:33:47.953Z,37.07
2018-11-03T06:36:17.193Z,45.43
2018-11-03T06:38:46.390Z,46.23
2018-11-03T06:41:15.793Z,43.87
2018-11-03T06:43:44.978Z,48.87
2018-11-03T06:46:14.153Z,50.80
2018-11-03T06:48:43.524Z,46.90
2018-11-03T06:51:12.734Z,52.70
2018-11-03T06:53:41.945Z,41.77
2018-11-03T06:56:11.169Z,48.27
2018-11-03T06:58:40.387Z,51.00
2018-11-03T07:01:09.684Z,46.87
2018-11-03T07:03:38.858Z,56.70
2018-11-03T07:06:08.046Z,59.10
2018-11-03T07:08:37.415Z,56.20
2018-11-03T07:11:06.594Z,57.17
2018-11-03T07:13:35.802Z,41.77
2018-11-03T07:16:05.601Z,56.77
2018-11-03T07:18:34.810Z,55.43
2018-11-03T07:21:04.054Z,45.53
2018-11-03T07:23:33.281Z,53.87
2018-11-03T07:26:02.621Z,47.77
2018-11-03T07:28:31.856Z,52.53
2018-11-03T07:31:01.053Z,54.10
2018-11-03T07:33:30.247Z,44.77
2018-11-03T07:35:59.623Z,59.70
2018-11-03T07:38:28.849Z,57.13
2018-11-03T07:40:58.146Z,55.80
2018-11-03T07:43:27.291Z,53.00
2018-11-03T07:45:56.481Z,51.83
2018-11-03T07:48:25.648Z,50.50
2018-11-03T07:51:24.230Z,57.43
2018-11-03T07:54:22.920Z,47.03
2018-11-03T08:03:22.530Z,50.07
2018-11-03T08:12:22.955Z,48.40
2018-11-03T08:18:22.528Z,45.60
2018-11-03T08:23:51.659Z,44.43
2018-11-03T08:26:20.855Z,43.10
2018-11-03T08:31:58.252Z,18.33
2018-11-03T08:34:27.432Z,21.33
2018-11-03T08:36:56.666Z,15.77
2018-11-03T08:39:25.842Z,17.10
2018-11-03T08:41:55.049Z,14.47
2018-11-03T08:44:25.018Z,14.27
2018-11-03T08:47:23.585Z,17.57
2018-11-03T08:50:12.606Z,17.87
2018-11-03T08:52:42.081Z,15.23
2018-11-03T08:55:24.244Z,14.30
2018-11-03T08:58:22.720Z,23.00
2018-11-03T09:10:23.078Z,21.97
2018-11-03T09:16:22.742Z,15.60
2018-11-03T09:21:52.289Z,12.63
2018-11-03T09:24:27.007Z,18.93
2018-11-03T09:27:23.103Z,13.77
2018-11-03T09:36:22.598Z,11.60
2018-11-03T09:45:22.681Z,11.70
2018-11-03T09:51:22.405Z,12.60
2018-11-03T10:03:12.457Z,9.67
2018-11-03T10:08:42.486Z,11.23
2018-11-03T10:11:24.079Z,10.10
2018-11-03T10:14:22.550Z,9.67
2018-11-03T10:16:51.742Z,9.73
2018-11-03T10:19:26.813Z,11.30
2018-11-03T10:21:56.865Z,11.40
2018-11-03T10:24:26.070Z,11.13
2018-11-03T10:26:55.293Z,10.40
2018-11-03T10:29:24.484Z,10.90
2018-11-03T10:34:40.927Z,11.20
2018-11-03T10:37:10.090Z,11.53
2018-11-03T10:39:39.372Z,12.27
2018-11-03T10:42:25.216Z,11.63
2018-11-03T10:44:54.389Z,10.80
2018-11-03T10:47:23.571Z,10.40
2018-11-03T10:49:52.792Z,10.53
2018-11-03T10:52:22.015Z,12.03
2018-11-03T10:54:51.196Z,10.73
2018-11-03T10:57:20.458Z,12.23
2018-11-03T10:59:49.653Z,11.07
2018-11-03T11:02:30.870Z,10.03
2018-11-03T11:05:05.417Z,9.93
2018-11-03T11:07:39.821Z,10.60
2018-11-03T11:10:30.697Z,10.77
2018-11-03T11:13:03.775Z,10.43
2018-11-03T11:15:32.974Z,10.30
2018-11-03T11:18:02.171Z,10.00
2018-11-03T11:20:31.390Z,9.90
2018-11-03T11:23:00.610Z,10.10
2018-11-03T11:25:29.963Z,10.50
2018-11-03T11:27:59.064Z,9.80
2018-11-03T11:30:33.669Z,10.20
2018-11-03T11:33:03.127Z,22.67
2018-11-03T11:35:32.541Z,18.23
2018-11-03T11:38:24.538Z,11.10
2018-11-03T11:40:53.721Z,10.67
2018-11-03T11:43:22.914Z,10.83
2018-11-03T11:45:52.239Z,9.90
2018-11-03T11:48:25.366Z,14.47
2018-11-03T11:51:23.597Z,11.97
2018-11-03T11:53:52.824Z,9.77
2018-11-03T11:56:22.014Z,12.50
2018-11-03T12:04:39.831Z,10.53
2018-11-03T12:07:25.266Z,11.80
2018-11-03T12:10:23.636Z,12.03
2018-11-03T12:12:52.886Z,12.27
2018-11-03T12:15:22.076Z,12.33
2018-11-03T12:22:27.950Z,13.70
2018-11-03T12:25:23.350Z,10.87
2018-11-03T12:33:53.941Z,9.70
2018-11-03T12:36:23.153Z,11.07
2018-11-03T12:38:52.343Z,8.90
2018-11-03T12:44:26.142Z,9.87
2018-11-03T12:47:22.422Z,10.83
2018-11-03T12:59:12.164Z,8.47
2018-11-03T13:01:41.334Z,9.03
2018-11-03T13:04:24.027Z,8.70
2018-11-03T13:07:22.480Z,8.83
2018-11-03T13:16:21.805Z,9.00
2018-11-03T13:18:51.064Z,7.73
2018-11-03T13:21:20.247Z,9.23
2018-11-03T13:24:12.187Z,7.63
2018-11-03T13:29:41.484Z,9.30
2018-11-03T13:32:12.417Z,8.57
2018-11-03T13:37:42.717Z,8.37
2018-11-03T13:40:24.163Z,8.30
2018-11-03T13:43:22.711Z,9.27
2018-11-03T13:45:52.888Z,7.90
2018-11-03T13:48:25.716Z,9.33
2018-11-03T13:51:24.213Z,9.40
2018-11-03T13:54:23.049Z,8.70
2018-11-03T13:59:53.097Z,9.47
2018-11-03T14:02:25.725Z,8.20
2018-11-03T14:05:24.373Z,7.63
2018-11-03T14:07:53.551Z,9.37
2018-11-03T14:10:22.775Z,9.10
2018-11-03T14:18:53.769Z,8.60
2018-11-03T14:21:22.961Z,9.10
2018-11-03T14:23:52.146Z,8.23
2018-11-03T14:26:26.907Z,8.00
2018-11-03T14:28:56.092Z,8.00
2018-11-03T14:31:25.290Z,8.77
2018-11-03T14:33:54.466Z,7.87
2018-11-03T14:36:24.044Z,9.90
2018-11-03T14:38:53.177Z,9.50
2018-11-03T14:41:25.766Z,9.00
2018-11-03T14:43:54.938Z,7.40
2018-11-03T14:46:24.295Z,8.30
2018-11-03T14:48:53.510Z,7.83
2018-11-03T14:51:22.713Z,8.70
2018-11-03T14:53:51.949Z,8.07
2018-11-03T14:56:27.148Z,7.70
2018-11-03T14:58:56.352Z,7.70
2018-11-03T15:01:26.232Z,9.10
2018-11-03T15:03:55.432Z,8.37
2018-11-03T15:06:24.745Z,8.90
2018-11-03T15:09:23.448Z,8.50
2018-11-03T15:18:22.701Z,9.60
2018-11-03T15:27:22.971Z,9.20
2018-11-03T15:29:52.181Z,11.00
2018-11-03T15:32:27.469Z,7.97
2018-11-03T15:35:22.562Z,9.83
2018-11-03T15:38:24.341Z,9.87
2018-11-03T15:44:22.864Z,9.30
2018-11-03T15:56:23.734Z,9.67
2018-11-03T15:59:22.605Z,18.10
2018-11-03T16:02:24.277Z,10.23
2018-11-03T16:08:22.974Z,10.00
2018-11-03T16:17:23.379Z,10.30
2018-11-03T16:19:52.587Z,10.47
2018-11-03T16:22:21.801Z,8.90
2018-11-03T16:27:51.133Z,8.20
2018-11-03T16:30:20.307Z,9.13
2018-11-03T16:32:49.545Z,10.00
2018-11-03T16:35:25.532Z,11.10
2018-11-03T16:38:24.422Z,9.90
2018-11-03T16:41:23.310Z,13.07
2018-11-03T16:47:23.044Z,8.87
2018-11-03T16:53:22.594Z,16.43
2018-11-03T16:56:24.481Z,11.43
2018-11-03T17:05:22.899Z,19.20
2018-11-03T17:11:24.559Z,17.40
2018-11-03T17:17:23.163Z,12.27
2018-11-03T17:19:52.341Z,27.13
2018-11-03T17:22:27.735Z,22.60
2018-11-03T17:24:57.003Z,28.97
2018-11-03T17:27:26.356Z,28.43
2018-11-03T17:30:23.003Z,29.77
2018-11-03T17:39:23.345Z,31.33
2018-11-03T17:45:23.262Z,25.40
2018-11-03T17:51:16.835Z,18.53
2018-11-03T17:53:46.026Z,29.73
2018-11-03T17:56:25.062Z,33.20
2018-11-03T17:59:23.169Z,34.10
2018-11-03T18:05:22.919Z,25.73
2018-11-03T18:07:52.285Z,24.50
2018-11-03T18:10:27.619Z,26.10
2018-11-03T18:13:23.093Z,19.33
2018-11-03T18:15:52.425Z,17.00
2018-11-03T18:18:22.197Z,24.30
2018-11-03T18:20:51.379Z,30.10
2018-11-03T18:23:20.582Z,30.70
2018-11-03T18:25:50.390Z,21.10
2018-11-03T18:28:19.565Z,33.43
2018-11-03T18:30:48.916Z,30.20
2018-11-03T18:33:18.180Z,26.80
2018-11-03T18:35:48.119Z,28.93
2018-11-03T18:38:18.095Z,31.90
2018-11-03T18:40:47.374Z,37.43
2018-11-03T18:43:16.541Z,28.30
2018-11-03T18:45:46.184Z,18.03
2018-11-03T18:48:15.381Z,19.37
2018-11-03T18:50:44.605Z,36.63
2018-11-03T18:53:14.790Z,25.77
2018-11-03T18:55:44.170Z,19.50
2018-11-03T18:58:13.357Z,23.60
2018-11-03T19:00:42.766Z,28.10
2018-11-03T19:03:11.946Z,35.57
2018-11-03T19:05:41.156Z,32.20
2018-11-03T19:08:10.836Z,37.40
2018-11-03T19:10:40.021Z,36.80
2018-11-03T19:13:09.283Z,43.60
2018-11-03T19:15:38.741Z,27.60
2018-11-03T19:18:24.786Z,36.57
2018-11-03T19:21:23.351Z,31.60
2018-11-03T19:23:52.654Z,29.73
2018-11-03T19:26:27.550Z,35.83
2018-11-03T19:29:44.509Z,35.93
2018-11-03T19:32:26.644Z,26.30
2018-11-03T19:34:55.847Z,26.77
2018-11-03T19:37:26.451Z,35.80
2018-11-03T19:40:24.497Z,32.97
2018-11-03T19:46:22.833Z,30.83
2018-11-03T19:51:52.074Z,42.40
2018-11-03T19:54:27.067Z,38.70
2018-11-03T20:00:22.802Z,28.47
2018-11-03T20:05:52.187Z,34.20
2018-11-03T20:08:27.518Z,21.03
2018-11-03T20:13:57.681Z,36.80
2018-11-03T20:16:26.826Z,38.17
2018-11-03T20:22:29.013Z,30.37
2018-11-03T20:24:58.298Z,39.50
2018-11-03T20:27:27.506Z,41.70
2018-11-03T20:29:56.846Z,40.30
2018-11-03T20:32:26.310Z,41.80
2018-11-03T20:34:55.686Z,42.13
2018-11-03T20:40:38.417Z,40.73
2018-11-03T20:43:08.398Z,40.43
2018-11-03T20:48:38.272Z,35.33
2018-11-03T20:51:08.590Z,27.97
2018-11-03T20:53:38.287Z,39.53
2018-11-03T20:56:08.097Z,36.13
2018-11-03T20:58:37.306Z,25.60
2018-11-03T21:01:06.884Z,26.70
2018-11-03T21:03:36.168Z,44.20
2018-11-03T21:12:40.437Z,41.13
2018-11-03T21:15:09.708Z,39.80
2018-11-03T21:17:39.054Z,27.27
2018-11-03T21:20:24.907Z,44.03
2018-11-03T21:26:29.202Z,41.97
2018-11-03T21:29:22.945Z,35.10
2018-11-03T21:34:27.092Z,41.10
2018-11-03T21:36:56.272Z,25.73
2018-11-03T21:39:25.809Z,35.67
2018-11-03T21:42:24.188Z,34.73
2018-11-03T21:45:23.037Z,40.60
2018-11-03T21:47:52.305Z,35.50
2018-11-03T21:50:27.517Z,26.93
2018-11-03T21:53:23.427Z,42.80
2018-11-03T21:55:52.678Z,28.17
2018-11-03T21:58:22.997Z,39.53
2018-11-03T22:03:53.126Z,41.23
2018-11-03T22:06:25.840Z,38.27
2018-11-03T22:09:24.141Z,24.63
2018-11-03T22:11:53.363Z,25.83
2018-11-03T22:14:26.521Z,42.73
2018-11-03T22:17:25.545Z,38.70
2018-11-03T22:19:54.875Z,35.17
2018-11-03T22:22:25.696Z,40.23
2018-11-03T22:25:24.129Z,39.77
2018-11-03T22:27:53.533Z,45.10
2018-11-03T22:30:22.892Z,40.70
2018-11-03T22:32:52.310Z,40.50
2018-11-03T22:35:21.486Z,39.53
2018-11-03T22:37:50.711Z,41.10
2018-11-03T22:40:20.098Z,40.27
2018-11-03T22:42:49.307Z,38.13
2018-11-03T22:45:18.503Z,40.13
2018-11-03T22:47:47.781Z,43.50
2018-11-03T22:50:17.613Z,39.10
2018-11-03T22:52:46.989Z,38.37
2018-11-03T22:55:16.690Z,32.50
2018-11-03T22:57:46.166Z,27.67
2018-11-03T23:00:15.509Z,33.50
2018-11-03T23:02:44.749Z,30.97
2018-11-03T23:05:14.497Z,41.50
2018-11-03T23:07:43.785Z,35.07
2018-11-03T23:10:13.022Z,35.40
2018-11-03T23:12:42.213Z,37.23
2018-11-03T23:15:11.908Z,36.70
2018-11-03T23:17:41.167Z,36.40
2018-11-03T23:20:35.093Z,37.23
2018-11-03T23:23:04.285Z,35.30
2018-11-03T23:25:33.466Z,38.00
2018-11-03T23:28:02.681Z,39.07
2018-11-03T23:30:31.877Z,39.83
2018-11-03T23:33:01.117Z,38.47
2018-11-03T23:35:30.327Z,35.30
2018-11-03T23:37:59.582Z,41.77
2018-11-03T23:40:28.767Z,39.50
2018-11-03T23:42:57.948Z,35.53
2018-11-03T23:45:27.142Z,37.17
2018-11-03T23:47:56.347Z,35.27
2018-11-03T23:50:25.564Z,34.87
2018-11-03T23:52:54.779Z,40.97
2018-11-03T23:55:23.981Z,28.37
2018-11-03T23:57:53.189Z,34.83
